sensor_id;sensor_type;location;lat;lon;timestamp;P1;durP1;ratioP1;P2;durP2;ratioP2
24585;SDS011;12743;52.262;6.172;2022-11-12T00:00:04;13.50;;;6.53;;
24585;SDS011;12743;52.262;6.172;2022-11-12T00:02:49;11.10;;;5.90;;
24585;SDS011;12743;52.262;6.172;2022-11-12T00:05:33;13.45;;;6.43;;
24585;SDS011;12743;52.262;6.172;2022-11-12T00:08:17;15.97;;;6.67;;
24585;SDS011;12743;52.262;6.172;2022-11-12T00:11:02;11.55;;;6.30;;
24585;SDS011;12743;52.262;6.172;2022-11-12T00:13:47;11.77;;;6.43;;
24585;SDS011;12743;52.262;6.172;2022-11-12T00:16:31;11.98;;;6.05;;
24585;SDS011;12743;52.262;6.172;2022-11-12T00:19:15;12.27;;;5.93;;
24585;SDS011;12743;52.262;6.172;2022-11-12T00:22:00;10.77;;;5.47;;
24585;SDS011;12743;52.262;6.172;2022-11-12T00:24:44;12.75;;;6.30;;
24585;SDS011;12743;52.262;6.172;2022-11-12T00:27:28;10.25;;;5.60;;
24585;SDS011;12743;52.262;6.172;2022-11-12T00:30:14;12.60;;;6.70;;
24585;SDS011;12743;52.262;6.172;2022-11-12T00:33:02;15.15;;;6.80;;
24585;SDS011;12743;52.262;6.172;2022-11-12T00:35:47;12.60;;;6.70;;
24585;SDS011;12743;52.262;6.172;2022-11-12T00:38:31;17.88;;;7.57;;
24585;SDS011;12743;52.262;6.172;2022-11-12T00:41:15;13.48;;;6.80;;
24585;SDS011;12743;52.262;6.172;2022-11-12T00:44:00;15.40;;;7.38;;
24585;SDS011;12743;52.262;6.172;2022-11-12T00:46:44;14.90;;;7.38;;
24585;SDS011;12743;52.262;6.172;2022-11-12T00:49:28;15.67;;;8.07;;
24585;SDS011;12743;52.262;6.172;2022-11-12T00:52:12;12.52;;;6.13;;
24585;SDS011;12743;52.262;6.172;2022-11-12T00:54:56;15.45;;;7.22;;
24585;SDS011;12743;52.262;6.172;2022-11-12T00:57:41;13.95;;;8.20;;
24585;SDS011;12743;52.262;6.172;2022-11-12T01:00:25;11.95;;;6.05;;
24585;SDS011;12743;52.262;6.172;2022-11-12T01:03:09;18.70;;;8.20;;
24585;SDS011;12743;52.262;6.172;2022-11-12T01:05:53;14.77;;;7.45;;
24585;SDS011;12743;52.262;6.172;2022-11-12T01:08:38;13.82;;;6.63;;
24585;SDS011;12743;52.262;6.172;2022-11-12T01:15:09;16.73;;;8.45;;
24585;SDS011;12743;52.262;6.172;2022-11-12T01:17:53;17.73;;;7.67;;
24585;SDS011;12743;52.262;6.172;2022-11-12T01:20:38;13.85;;;6.65;;
24585;SDS011;12743;52.262;6.172;2022-11-12T01:23:22;12.27;;;5.78;;
24585;SDS011;12743;52.262;6.172;2022-11-12T01:26:07;15.75;;;7.70;;
24585;SDS011;12743;52.262;6.172;2022-11-12T01:28:56;12.98;;;6.18;;
24585;SDS011;12743;52.262;6.172;2022-11-12T01:31:40;12.67;;;6.03;;
24585;SDS011;12743;52.262;6.172;2022-11-12T01:34:24;12.80;;;6.75;;
24585;SDS011;12743;52.262;6.172;2022-11-12T01:37:08;14.48;;;7.75;;
24585;SDS011;12743;52.262;6.172;2022-11-12T01:39:54;15.95;;;8.45;;
24585;SDS011;12743;52.262;6.172;2022-11-12T01:42:38;16.80;;;8.95;;
24585;SDS011;12743;52.262;6.172;2022-11-12T01:45:22;23.17;;;9.37;;
24585;SDS011;12743;52.262;6.172;2022-11-12T01:48:06;16.83;;;8.27;;
24585;SDS011;12743;52.262;6.172;2022-11-12T01:51:08;12.27;;;6.30;;
24585;SDS011;12743;52.262;6.172;2022-11-12T01:53:54;15.70;;;7.15;;
24585;SDS011;12743;52.262;6.172;2022-11-12T01:56:41;17.58;;;7.95;;
24585;SDS011;12743;52.262;6.172;2022-11-12T01:59:26;13.27;;;7.37;;
24585;SDS011;12743;52.262;6.172;2022-11-12T02:02:16;11.80;;;6.20;;
24585;SDS011;12743;52.262;6.172;2022-11-12T02:05:00;13.68;;;7.40;;
24585;SDS011;12743;52.262;6.172;2022-11-12T02:07:45;13.15;;;6.00;;
24585;SDS011;12743;52.262;6.172;2022-11-12T02:10:31;12.25;;;5.78;;
24585;SDS011;12743;52.262;6.172;2022-11-12T02:13:17;13.83;;;5.83;;
24585;SDS011;12743;52.262;6.172;2022-11-12T02:16:20;12.10;;;5.45;;
24585;SDS011;12743;52.262;6.172;2022-11-12T02:19:06;11.30;;;5.47;;
24585;SDS011;12743;52.262;6.172;2022-11-12T02:21:52;10.63;;;5.07;;
24585;SDS011;12743;52.262;6.172;2022-11-12T02:24:36;10.88;;;5.20;;
24585;SDS011;12743;52.262;6.172;2022-11-12T02:27:20;13.67;;;6.00;;
24585;SDS011;12743;52.262;6.172;2022-11-12T02:30:05;9.98;;;5.30;;
24585;SDS011;12743;52.262;6.172;2022-11-12T02:32:49;12.63;;;6.75;;
24585;SDS011;12743;52.262;6.172;2022-11-12T02:35:34;11.30;;;5.45;;
24585;SDS011;12743;52.262;6.172;2022-11-12T02:38:18;11.27;;;5.72;;
24585;SDS011;12743;52.262;6.172;2022-11-12T02:41:02;14.53;;;7.53;;
24585;SDS011;12743;52.262;6.172;2022-11-12T02:43:46;17.08;;;9.63;;
24585;SDS011;12743;52.262;6.172;2022-11-12T02:46:31;15.57;;;8.32;;
24585;SDS011;12743;52.262;6.172;2022-11-12T02:49:15;13.77;;;6.63;;
24585;SDS011;12743;52.262;6.172;2022-11-12T02:51:59;10.82;;;5.88;;
24585;SDS011;12743;52.262;6.172;2022-11-12T02:54:43;11.13;;;5.87;;
24585;SDS011;12743;52.262;6.172;2022-11-12T02:57:27;9.20;;;5.32;;
24585;SDS011;12743;52.262;6.172;2022-11-12T03:00:13;11.50;;;5.75;;
24585;SDS011;12743;52.262;6.172;2022-11-12T03:02:57;11.52;;;6.50;;
24585;SDS011;12743;52.262;6.172;2022-11-12T03:05:44;9.75;;;5.25;;
24585;SDS011;12743;52.262;6.172;2022-11-12T03:08:29;12.27;;;5.83;;
24585;SDS011;12743;52.262;6.172;2022-11-12T03:11:14;11.73;;;6.90;;
24585;SDS011;12743;52.262;6.172;2022-11-12T03:14:00;16.60;;;9.10;;
24585;SDS011;12743;52.262;6.172;2022-11-12T03:16:44;15.52;;;8.60;;
24585;SDS011;12743;52.262;6.172;2022-11-12T03:19:29;14.80;;;7.35;;
24585;SDS011;12743;52.262;6.172;2022-11-12T03:22:12;10.80;;;5.50;;
24585;SDS011;12743;52.262;6.172;2022-11-12T03:24:57;11.50;;;5.63;;
24585;SDS011;12743;52.262;6.172;2022-11-12T03:27:41;17.90;;;8.75;;
24585;SDS011;12743;52.262;6.172;2022-11-12T03:30:29;19.60;;;9.95;;
24585;SDS011;12743;52.262;6.172;2022-11-12T03:33:15;17.52;;;9.50;;
24585;SDS011;12743;52.262;6.172;2022-11-12T03:35:59;21.20;;;10.60;;
24585;SDS011;12743;52.262;6.172;2022-11-12T03:38:44;14.70;;;7.85;;
24585;SDS011;12743;52.262;6.172;2022-11-12T03:41:28;18.42;;;9.90;;
24585;SDS011;12743;52.262;6.172;2022-11-12T03:44:12;16.42;;;8.82;;
24585;SDS011;12743;52.262;6.172;2022-11-12T03:46:56;12.10;;;6.80;;
24585;SDS011;12743;52.262;6.172;2022-11-12T03:49:40;16.30;;;7.37;;
24585;SDS011;12743;52.262;6.172;2022-11-12T03:52:25;18.10;;;8.90;;
24585;SDS011;12743;52.262;6.172;2022-11-12T03:55:09;16.08;;;7.70;;
24585;SDS011;12743;52.262;6.172;2022-11-12T03:57:53;17.30;;;8.70;;
24585;SDS011;12743;52.262;6.172;2022-11-12T04:00:37;17.23;;;9.93;;
24585;SDS011;12743;52.262;6.172;2022-11-12T04:03:21;19.57;;;9.70;;
24585;SDS011;12743;52.262;6.172;2022-11-12T04:06:06;18.00;;;9.95;;
24585;SDS011;12743;52.262;6.172;2022-11-12T04:09:10;16.73;;;9.00;;
24585;SDS011;12743;52.262;6.172;2022-11-12T04:11:54;17.60;;;9.30;;
24585;SDS011;12743;52.262;6.172;2022-11-12T04:14:38;18.77;;;10.10;;
24585;SDS011;12743;52.262;6.172;2022-11-12T04:17:23;17.10;;;8.73;;
24585;SDS011;12743;52.262;6.172;2022-11-12T04:20:25;17.17;;;9.50;;
24585;SDS011;12743;52.262;6.172;2022-11-12T04:23:28;18.13;;;9.75;;
24585;SDS011;12743;52.262;6.172;2022-11-12T04:26:12;20.25;;;10.05;;
24585;SDS011;12743;52.262;6.172;2022-11-12T04:29:08;23.35;;;11.15;;
24585;SDS011;12743;52.262;6.172;2022-11-12T04:32:11;16.93;;;10.00;;
24585;SDS011;12743;52.262;6.172;2022-11-12T04:34:55;13.95;;;7.25;;
24585;SDS011;12743;52.262;6.172;2022-11-12T04:37:39;15.63;;;8.40;;
24585;SDS011;12743;52.262;6.172;2022-11-12T04:40:30;17.10;;;8.77;;
24585;SDS011;12743;52.262;6.172;2022-11-12T04:43:33;16.67;;;8.65;;
24585;SDS011;12743;52.262;6.172;2022-11-12T04:46:36;16.60;;;8.83;;
24585;SDS011;12743;52.262;6.172;2022-11-12T04:49:20;19.67;;;8.23;;
24585;SDS011;12743;52.262;6.172;2022-11-12T04:52:04;14.38;;;8.05;;
24585;SDS011;12743;52.262;6.172;2022-11-12T04:54:48;16.90;;;8.00;;
24585;SDS011;12743;52.262;6.172;2022-11-12T04:57:33;15.85;;;8.60;;
24585;SDS011;12743;52.262;6.172;2022-11-12T05:00:17;13.17;;;7.67;;
24585;SDS011;12743;52.262;6.172;2022-11-12T05:03:01;17.52;;;8.98;;
24585;SDS011;12743;52.262;6.172;2022-11-12T05:05:45;15.45;;;7.47;;
24585;SDS011;12743;52.262;6.172;2022-11-12T05:08:29;15.00;;;8.30;;
24585;SDS011;12743;52.262;6.172;2022-11-12T05:11:14;18.35;;;9.70;;
24585;SDS011;12743;52.262;6.172;2022-11-12T05:13:58;16.97;;;8.70;;
24585;SDS011;12743;52.262;6.172;2022-11-12T05:16:42;14.60;;;7.30;;
24585;SDS011;12743;52.262;6.172;2022-11-12T05:19:26;16.10;;;7.43;;
24585;SDS011;12743;52.262;6.172;2022-11-12T05:22:11;10.88;;;6.13;;
24585;SDS011;12743;52.262;6.172;2022-11-12T05:24:55;11.43;;;5.30;;
24585;SDS011;12743;52.262;6.172;2022-11-12T05:27:39;11.57;;;5.03;;
24585;SDS011;12743;52.262;6.172;2022-11-12T05:30:23;10.73;;;5.53;;
24585;SDS011;12743;52.262;6.172;2022-11-12T05:33:07;12.32;;;5.85;;
24585;SDS011;12743;52.262;6.172;2022-11-12T05:35:54;10.93;;;5.47;;
24585;SDS011;12743;52.262;6.172;2022-11-12T05:38:38;12.23;;;5.10;;
24585;SDS011;12743;52.262;6.172;2022-11-12T05:41:22;9.20;;;4.83;;
24585;SDS011;12743;52.262;6.172;2022-11-12T05:44:07;12.05;;;5.28;;
24585;SDS011;12743;52.262;6.172;2022-11-12T05:46:51;9.68;;;5.13;;
24585;SDS011;12743;52.262;6.172;2022-11-12T05:49:35;8.88;;;4.95;;
24585;SDS011;12743;52.262;6.172;2022-11-12T05:52:19;10.07;;;4.88;;
24585;SDS011;12743;52.262;6.172;2022-11-12T05:55:03;10.10;;;4.50;;
24585;SDS011;12743;52.262;6.172;2022-11-12T05:57:47;11.50;;;4.85;;
24585;SDS011;12743;52.262;6.172;2022-11-12T06:00:31;11.60;;;5.32;;
24585;SDS011;12743;52.262;6.172;2022-11-12T06:03:21;10.35;;;5.60;;
24585;SDS011;12743;52.262;6.172;2022-11-12T06:06:05;11.30;;;5.00;;
24585;SDS011;12743;52.262;6.172;2022-11-12T06:08:50;10.30;;;4.90;;
24585;SDS011;12743;52.262;6.172;2022-11-12T06:11:34;9.93;;;5.03;;
24585;SDS011;12743;52.262;6.172;2022-11-12T06:14:18;9.60;;;5.28;;
24585;SDS011;12743;52.262;6.172;2022-11-12T06:17:02;9.82;;;4.68;;
24585;SDS011;12743;52.262;6.172;2022-11-12T06:19:47;10.63;;;5.45;;
24585;SDS011;12743;52.262;6.172;2022-11-12T06:22:31;10.10;;;5.33;;
24585;SDS011;12743;52.262;6.172;2022-11-12T06:25:16;11.55;;;5.35;;
24585;SDS011;12743;52.262;6.172;2022-11-12T06:28:00;10.68;;;5.45;;
24585;SDS011;12743;52.262;6.172;2022-11-12T06:30:44;11.30;;;5.68;;
24585;SDS011;12743;52.262;6.172;2022-11-12T06:33:28;10.30;;;5.60;;
24585;SDS011;12743;52.262;6.172;2022-11-12T06:36:13;9.37;;;5.10;;
24585;SDS011;12743;52.262;6.172;2022-11-12T06:38:58;11.00;;;5.22;;
24585;SDS011;12743;52.262;6.172;2022-11-12T06:41:43;9.13;;;4.90;;
24585;SDS011;12743;52.262;6.172;2022-11-12T06:44:27;8.75;;;4.65;;
24585;SDS011;12743;52.262;6.172;2022-11-12T06:47:11;10.23;;;4.90;;
24585;SDS011;12743;52.262;6.172;2022-11-12T06:49:55;12.23;;;5.33;;
24585;SDS011;12743;52.262;6.172;2022-11-12T06:52:39;13.82;;;5.65;;
24585;SDS011;12743;52.262;6.172;2022-11-12T06:55:23;11.10;;;5.00;;
24585;SDS011;12743;52.262;6.172;2022-11-12T06:58:08;10.73;;;4.75;;
24585;SDS011;12743;52.262;6.172;2022-11-12T07:00:52;10.95;;;5.65;;
24585;SDS011;12743;52.262;6.172;2022-11-12T07:03:36;10.10;;;4.63;;
24585;SDS011;12743;52.262;6.172;2022-11-12T07:06:20;9.88;;;4.68;;
24585;SDS011;12743;52.262;6.172;2022-11-12T07:09:04;10.45;;;4.93;;
24585;SDS011;12743;52.262;6.172;2022-11-12T07:11:48;9.77;;;4.82;;
24585;SDS011;12743;52.262;6.172;2022-11-12T07:14:33;9.05;;;4.65;;
24585;SDS011;12743;52.262;6.172;2022-11-12T07:17:17;10.67;;;5.00;;
24585;SDS011;12743;52.262;6.172;2022-11-12T07:20:01;14.00;;;5.35;;
24585;SDS011;12743;52.262;6.172;2022-11-12T07:22:46;13.43;;;6.07;;
24585;SDS011;12743;52.262;6.172;2022-11-12T07:25:30;12.43;;;5.28;;
24585;SDS011;12743;52.262;6.172;2022-11-12T07:28:14;10.98;;;6.03;;
24585;SDS011;12743;52.262;6.172;2022-11-12T07:30:59;11.07;;;5.53;;
24585;SDS011;12743;52.262;6.172;2022-11-12T07:33:45;8.93;;;4.55;;
24585;SDS011;12743;52.262;6.172;2022-11-12T07:36:31;9.40;;;4.50;;
24585;SDS011;12743;52.262;6.172;2022-11-12T07:39:16;10.73;;;5.25;;
24585;SDS011;12743;52.262;6.172;2022-11-12T07:42:00;10.48;;;4.97;;
24585;SDS011;12743;52.262;6.172;2022-11-12T07:44:44;9.57;;;4.57;;
24585;SDS011;12743;52.262;6.172;2022-11-12T07:47:29;9.15;;;4.63;;
24585;SDS011;12743;52.262;6.172;2022-11-12T07:50:13;11.65;;;4.70;;
24585;SDS011;12743;52.262;6.172;2022-11-12T07:52:57;9.73;;;4.63;;
24585;SDS011;12743;52.262;6.172;2022-11-12T07:55:41;10.75;;;5.70;;
24585;SDS011;12743;52.262;6.172;2022-11-12T07:58:26;14.30;;;6.33;;
24585;SDS011;12743;52.262;6.172;2022-11-12T08:01:27;12.23;;;6.65;;
24585;SDS011;12743;52.262;6.172;2022-11-12T08:04:14;12.25;;;5.43;;
24585;SDS011;12743;52.262;6.172;2022-11-12T08:06:58;10.48;;;5.30;;
24585;SDS011;12743;52.262;6.172;2022-11-12T08:09:42;10.93;;;5.65;;
24585;SDS011;12743;52.262;6.172;2022-11-12T08:12:27;9.03;;;4.53;;
24585;SDS011;12743;52.262;6.172;2022-11-12T08:15:11;8.68;;;4.82;;
24585;SDS011;12743;52.262;6.172;2022-11-12T08:17:55;10.32;;;5.05;;
24585;SDS011;12743;52.262;6.172;2022-11-12T08:20:39;10.15;;;5.47;;
24585;SDS011;12743;52.262;6.172;2022-11-12T08:23:24;11.93;;;5.57;;
24585;SDS011;12743;52.262;6.172;2022-11-12T08:26:10;10.63;;;5.07;;
24585;SDS011;12743;52.262;6.172;2022-11-12T08:28:56;12.05;;;5.57;;
24585;SDS011;12743;52.262;6.172;2022-11-12T08:31:39;9.80;;;5.03;;
24585;SDS011;12743;52.262;6.172;2022-11-12T08:34:24;9.98;;;4.75;;
24585;SDS011;12743;52.262;6.172;2022-11-12T08:37:08;8.45;;;5.00;;
24585;SDS011;12743;52.262;6.172;2022-11-12T08:39:53;9.40;;;5.40;;
24585;SDS011;12743;52.262;6.172;2022-11-12T08:42:37;10.52;;;5.10;;
24585;SDS011;12743;52.262;6.172;2022-11-12T08:45:21;10.73;;;5.65;;
24585;SDS011;12743;52.262;6.172;2022-11-12T08:48:09;17.55;;;6.38;;
24585;SDS011;12743;52.262;6.172;2022-11-12T08:50:57;14.98;;;7.22;;
24585;SDS011;12743;52.262;6.172;2022-11-12T08:53:44;15.67;;;7.10;;
24585;SDS011;12743;52.262;6.172;2022-11-12T08:56:28;14.27;;;7.50;;
24585;SDS011;12743;52.262;6.172;2022-11-12T08:59:12;12.63;;;6.47;;
24585;SDS011;12743;52.262;6.172;2022-11-12T09:01:57;14.40;;;7.95;;
24585;SDS011;12743;52.262;6.172;2022-11-12T09:04:41;11.98;;;6.57;;
24585;SDS011;12743;52.262;6.172;2022-11-12T09:07:25;12.67;;;6.63;;
24585;SDS011;12743;52.262;6.172;2022-11-12T09:10:09;11.18;;;6.68;;
24585;SDS011;12743;52.262;6.172;2022-11-12T09:12:54;11.82;;;6.38;;
24585;SDS011;12743;52.262;6.172;2022-11-12T09:15:38;11.65;;;6.47;;
24585;SDS011;12743;52.262;6.172;2022-11-12T09:18:22;13.20;;;7.32;;
24585;SDS011;12743;52.262;6.172;2022-11-12T09:21:07;13.73;;;6.77;;
24585;SDS011;12743;52.262;6.172;2022-11-12T09:23:54;13.55;;;6.88;;
24585;SDS011;12743;52.262;6.172;2022-11-12T09:26:38;12.90;;;6.80;;
24585;SDS011;12743;52.262;6.172;2022-11-12T09:29:22;13.63;;;7.68;;
24585;SDS011;12743;52.262;6.172;2022-11-12T09:32:06;11.63;;;6.72;;
24585;SDS011;12743;52.262;6.172;2022-11-12T09:34:51;13.90;;;8.07;;
24585;SDS011;12743;52.262;6.172;2022-11-12T09:37:38;12.55;;;7.40;;
24585;SDS011;12743;52.262;6.172;2022-11-12T09:40:22;11.95;;;7.90;;
24585;SDS011;12743;52.262;6.172;2022-11-12T09:43:33;14.35;;;6.90;;
24585;SDS011;12743;52.262;6.172;2022-11-12T09:46:27;12.38;;;6.45;;
24585;SDS011;12743;52.262;6.172;2022-11-12T09:52:05;14.07;;;7.38;;
24585;SDS011;12743;52.262;6.172;2022-11-12T09:55:01;14.60;;;7.25;;
24585;SDS011;12743;52.262;6.172;2022-11-12T09:57:52;15.73;;;7.50;;
24585;SDS011;12743;52.262;6.172;2022-11-12T10:00:36;13.65;;;7.45;;
24585;SDS011;12743;52.262;6.172;2022-11-12T10:03:30;16.47;;;8.40;;
24585;SDS011;12743;52.262;6.172;2022-11-12T10:06:22;12.15;;;7.75;;
24585;SDS011;12743;52.262;6.172;2022-11-12T10:09:15;17.20;;;8.27;;
24585;SDS011;12743;52.262;6.172;2022-11-12T10:15:27;14.45;;;8.10;;
24585;SDS011;12743;52.262;6.172;2022-11-12T10:18:53;12.60;;;8.23;;
24585;SDS011;12743;52.262;6.172;2022-11-12T10:25:14;14.02;;;7.65;;
24585;SDS011;12743;52.262;6.172;2022-11-12T10:28:01;15.52;;;7.15;;
24585;SDS011;12743;52.262;6.172;2022-11-12T10:31:00;12.38;;;6.72;;
24585;SDS011;12743;52.262;6.172;2022-11-12T10:37:09;10.55;;;6.13;;
24585;SDS011;12743;52.262;6.172;2022-11-12T10:39:56;9.70;;;5.40;;
24585;SDS011;12743;52.262;6.172;2022-11-12T10:45:43;11.30;;;6.15;;
24585;SDS011;12743;52.262;6.172;2022-11-12T10:48:29;10.73;;;6.47;;
24585;SDS011;12743;52.262;6.172;2022-11-12T10:51:38;10.25;;;6.35;;
24585;SDS011;12743;52.262;6.172;2022-11-12T10:54:35;17.42;;;6.38;;
24585;SDS011;12743;52.262;6.172;2022-11-12T10:57:20;10.70;;;5.80;;
24585;SDS011;12743;52.262;6.172;2022-11-12T11:02:57;10.57;;;6.10;;
24585;SDS011;12743;52.262;6.172;2022-11-12T11:08:45;11.25;;;6.38;;
24585;SDS011;12743;52.262;6.172;2022-11-12T11:11:31;12.00;;;7.18;;
24585;SDS011;12743;52.262;6.172;2022-11-12T11:17:05;11.60;;;6.90;;
24585;SDS011;12743;52.262;6.172;2022-11-12T11:20:01;10.60;;;6.05;;
24585;SDS011;12743;52.262;6.172;2022-11-12T11:22:49;10.98;;;6.40;;
24585;SDS011;12743;52.262;6.172;2022-11-12T11:25:56;10.65;;;5.72;;
24585;SDS011;12743;52.262;6.172;2022-11-12T11:28:49;11.32;;;5.82;;
24585;SDS011;12743;52.262;6.172;2022-11-12T11:31:50;9.23;;;5.70;;
24585;SDS011;12743;52.262;6.172;2022-11-12T11:37:34;9.90;;;5.45;;
24585;SDS011;12743;52.262;6.172;2022-11-12T11:43:43;9.55;;;5.07;;
24585;SDS011;12743;52.262;6.172;2022-11-12T11:46:50;8.77;;;4.40;;
24585;SDS011;12743;52.262;6.172;2022-11-12T11:55:36;9.15;;;5.07;;
24585;SDS011;12743;52.262;6.172;2022-11-12T11:58:52;8.40;;;5.43;;
24585;SDS011;12743;52.262;6.172;2022-11-12T12:05:21;9.00;;;5.15;;
24585;SDS011;12743;52.262;6.172;2022-11-12T12:08:50;9.93;;;4.82;;
24585;SDS011;12743;52.262;6.172;2022-11-12T12:18:12;10.43;;;5.77;;
24585;SDS011;12743;52.262;6.172;2022-11-12T12:21:11;11.35;;;5.85;;
24585;SDS011;12743;52.262;6.172;2022-11-12T12:24:03;9.63;;;5.32;;
24585;SDS011;12743;52.262;6.172;2022-11-12T12:26:59;10.57;;;5.55;;
24585;SDS011;12743;52.262;6.172;2022-11-12T12:29:58;9.55;;;5.15;;
24585;SDS011;12743;52.262;6.172;2022-11-12T12:32:55;9.70;;;5.10;;
24585;SDS011;12743;52.262;6.172;2022-11-12T12:36:04;10.05;;;5.30;;
24585;SDS011;12743;52.262;6.172;2022-11-12T12:41:53;8.75;;;5.18;;
24585;SDS011;12743;52.262;6.172;2022-11-12T12:44:43;7.88;;;4.80;;
24585;SDS011;12743;52.262;6.172;2022-11-12T12:47:45;9.73;;;4.93;;
24585;SDS011;12743;52.262;6.172;2022-11-12T12:50:30;8.43;;;4.93;;
24585;SDS011;12743;52.262;6.172;2022-11-12T12:53:16;9.95;;;4.85;;
24585;SDS011;12743;52.262;6.172;2022-11-12T12:58:57;10.02;;;5.30;;
24585;SDS011;12743;52.262;6.172;2022-11-12T13:01:50;11.90;;;5.70;;
24585;SDS011;12743;52.262;6.172;2022-11-12T13:04:48;8.57;;;4.93;;
24585;SDS011;12743;52.262;6.172;2022-11-12T13:07:41;9.05;;;4.93;;
24585;SDS011;12743;52.262;6.172;2022-11-12T13:10:33;8.35;;;4.45;;
24585;SDS011;12743;52.262;6.172;2022-11-12T13:13:28;7.80;;;4.00;;
24585;SDS011;12743;52.262;6.172;2022-11-12T13:33:21;7.03;;;3.40;;
24585;SDS011;12743;52.262;6.172;2022-11-12T13:36:23;6.75;;;3.72;;
24585;SDS011;12743;52.262;6.172;2022-11-12T13:39:13;10.85;;;4.88;;
24585;SDS011;12743;52.262;6.172;2022-11-12T13:42:00;8.25;;;4.07;;
24585;SDS011;12743;52.262;6.172;2022-11-12T13:45:10;9.23;;;4.23;;
24585;SDS011;12743;52.262;6.172;2022-11-12T13:47:55;7.55;;;3.85;;
24585;SDS011;12743;52.262;6.172;2022-11-12T13:50:40;7.13;;;4.07;;
24585;SDS011;12743;52.262;6.172;2022-11-12T13:53:26;8.93;;;4.50;;
24585;SDS011;12743;52.262;6.172;2022-11-12T13:56:11;9.23;;;4.65;;
24585;SDS011;12743;52.262;6.172;2022-11-12T13:59:15;8.60;;;4.57;;
24585;SDS011;12743;52.262;6.172;2022-11-12T14:02:02;9.40;;;4.72;;
24585;SDS011;12743;52.262;6.172;2022-11-12T14:04:47;9.73;;;5.00;;
24585;SDS011;12743;52.262;6.172;2022-11-12T14:07:58;9.60;;;4.05;;
24585;SDS011;12743;52.262;6.172;2022-11-12T14:14:18;10.53;;;5.17;;
24585;SDS011;12743;52.262;6.172;2022-11-12T14:17:31;9.18;;;5.10;;
24585;SDS011;12743;52.262;6.172;2022-11-12T14:20:32;10.85;;;5.95;;
24585;SDS011;12743;52.262;6.172;2022-11-12T14:23:17;10.52;;;5.50;;
24585;SDS011;12743;52.262;6.172;2022-11-12T14:26:03;10.00;;;5.07;;
24585;SDS011;12743;52.262;6.172;2022-11-12T14:28:50;8.53;;;5.07;;
24585;SDS011;12743;52.262;6.172;2022-11-12T14:31:38;8.82;;;5.22;;
24585;SDS011;12743;52.262;6.172;2022-11-12T14:34:26;9.43;;;4.97;;
24585;SDS011;12743;52.262;6.172;2022-11-12T14:37:35;10.05;;;5.15;;
24585;SDS011;12743;52.262;6.172;2022-11-12T14:40:21;9.38;;;4.72;;
24585;SDS011;12743;52.262;6.172;2022-11-12T14:43:14;9.33;;;5.00;;
24585;SDS011;12743;52.262;6.172;2022-11-12T14:46:04;11.10;;;4.95;;
24585;SDS011;12743;52.262;6.172;2022-11-12T14:48:51;8.70;;;4.75;;
24585;SDS011;12743;52.262;6.172;2022-11-12T14:51:47;9.40;;;4.47;;
24585;SDS011;12743;52.262;6.172;2022-11-12T14:54:38;9.88;;;4.53;;
24585;SDS011;12743;52.262;6.172;2022-11-12T14:57:25;9.17;;;4.93;;
24585;SDS011;12743;52.262;6.172;2022-11-12T15:00:18;10.30;;;5.22;;
24585;SDS011;12743;52.262;6.172;2022-11-12T15:03:24;9.82;;;5.78;;
24585;SDS011;12743;52.262;6.172;2022-11-12T15:06:14;9.90;;;5.93;;
24585;SDS011;12743;52.262;6.172;2022-11-12T15:09:03;13.05;;;6.30;;
24585;SDS011;12743;52.262;6.172;2022-11-12T15:11:48;11.10;;;6.17;;
24585;SDS011;12743;52.262;6.172;2022-11-12T15:14:32;11.35;;;6.32;;
24585;SDS011;12743;52.262;6.172;2022-11-12T15:20:15;13.07;;;6.60;;
24585;SDS011;12743;52.262;6.172;2022-11-12T15:23:01;10.75;;;5.75;;
24585;SDS011;12743;52.262;6.172;2022-11-12T15:25:45;13.93;;;6.40;;
24585;SDS011;12743;52.262;6.172;2022-11-12T15:28:40;12.55;;;6.00;;
24585;SDS011;12743;52.262;6.172;2022-11-12T15:31:24;13.48;;;6.40;;
24585;SDS011;12743;52.262;6.172;2022-11-12T15:37:25;11.50;;;6.10;;
24585;SDS011;12743;52.262;6.172;2022-11-12T15:40:14;12.60;;;6.50;;
24585;SDS011;12743;52.262;6.172;2022-11-12T15:43:01;13.45;;;6.75;;
24585;SDS011;12743;52.262;6.172;2022-11-12T15:45:46;14.27;;;7.70;;
24585;SDS011;12743;52.262;6.172;2022-11-12T15:48:32;14.60;;;6.78;;
24585;SDS011;12743;52.262;6.172;2022-11-12T15:51:16;18.55;;;7.45;;
24585;SDS011;12743;52.262;6.172;2022-11-12T15:54:00;13.27;;;7.37;;
24585;SDS011;12743;52.262;6.172;2022-11-12T15:56:44;13.45;;;7.82;;
24585;SDS011;12743;52.262;6.172;2022-11-12T15:59:29;13.55;;;7.30;;
24585;SDS011;12743;52.262;6.172;2022-11-12T16:02:13;14.38;;;6.95;;
24585;SDS011;12743;52.262;6.172;2022-11-12T16:04:58;12.77;;;7.00;;
24585;SDS011;12743;52.262;6.172;2022-11-12T16:07:42;12.83;;;6.10;;
24585;SDS011;12743;52.262;6.172;2022-11-12T16:10:26;15.35;;;7.25;;
24585;SDS011;12743;52.262;6.172;2022-11-12T16:13:15;13.10;;;6.95;;
24585;SDS011;12743;52.262;6.172;2022-11-12T16:16:09;21.42;;;10.00;;
24585;SDS011;12743;52.262;6.172;2022-11-12T16:18:54;15.10;;;7.07;;
24585;SDS011;12743;52.262;6.172;2022-11-12T16:21:38;12.53;;;6.97;;
24585;SDS011;12743;52.262;6.172;2022-11-12T16:24:22;13.43;;;6.20;;
24585;SDS011;12743;52.262;6.172;2022-11-12T16:27:09;12.85;;;6.18;;
24585;SDS011;12743;52.262;6.172;2022-11-12T16:29:56;13.35;;;6.95;;
24585;SDS011;12743;52.262;6.172;2022-11-12T16:32:40;11.98;;;6.20;;
24585;SDS011;12743;52.262;6.172;2022-11-12T16:35:24;13.03;;;6.37;;
24585;SDS011;12743;52.262;6.172;2022-11-12T16:38:11;15.30;;;6.78;;
24585;SDS011;12743;52.262;6.172;2022-11-12T16:40:57;12.85;;;6.50;;
24585;SDS011;12743;52.262;6.172;2022-11-12T16:43:41;13.55;;;7.10;;
24585;SDS011;12743;52.262;6.172;2022-11-12T16:46:29;13.88;;;6.88;;
24585;SDS011;12743;52.262;6.172;2022-11-12T16:49:17;11.97;;;6.07;;
24585;SDS011;12743;52.262;6.172;2022-11-12T16:52:01;12.98;;;6.53;;
24585;SDS011;12743;52.262;6.172;2022-11-12T16:54:45;12.57;;;6.53;;
24585;SDS011;12743;52.262;6.172;2022-11-12T16:57:29;11.70;;;6.95;;
24585;SDS011;12743;52.262;6.172;2022-11-12T17:00:14;13.82;;;7.00;;
24585;SDS011;12743;52.262;6.172;2022-11-12T17:03:00;14.03;;;6.90;;
24585;SDS011;12743;52.262;6.172;2022-11-12T17:05:49;15.73;;;8.68;;
24585;SDS011;12743;52.262;6.172;2022-11-12T17:08:34;14.68;;;8.63;;
24585;SDS011;12743;52.262;6.172;2022-11-12T17:11:18;16.00;;;8.90;;
24585;SDS011;12743;52.262;6.172;2022-11-12T17:14:03;16.67;;;10.18;;
24585;SDS011;12743;52.262;6.172;2022-11-12T17:16:48;18.87;;;10.50;;
24585;SDS011;12743;52.262;6.172;2022-11-12T17:19:32;16.45;;;10.05;;
24585;SDS011;12743;52.262;6.172;2022-11-12T17:22:16;16.60;;;9.60;;
24585;SDS011;12743;52.262;6.172;2022-11-12T17:25:02;17.88;;;11.00;;
24585;SDS011;12743;52.262;6.172;2022-11-12T17:27:47;22.17;;;12.23;;
24585;SDS011;12743;52.262;6.172;2022-11-12T17:30:31;27.20;;;13.50;;
24585;SDS011;12743;52.262;6.172;2022-11-12T17:33:16;24.30;;;12.23;;
24585;SDS011;12743;52.262;6.172;2022-11-12T17:36:00;19.95;;;12.45;;
24585;SDS011;12743;52.262;6.172;2022-11-12T17:38:46;21.08;;;11.70;;
24585;SDS011;12743;52.262;6.172;2022-11-12T17:41:30;20.00;;;11.23;;
24585;SDS011;12743;52.262;6.172;2022-11-12T17:44:14;18.53;;;10.10;;
24585;SDS011;12743;52.262;6.172;2022-11-12T17:47:00;19.10;;;9.82;;
24585;SDS011;12743;52.262;6.172;2022-11-12T17:49:45;17.00;;;9.43;;
24585;SDS011;12743;52.262;6.172;2022-11-12T17:52:30;18.25;;;9.65;;
24585;SDS011;12743;52.262;6.172;2022-11-12T17:55:14;16.52;;;9.27;;
24585;SDS011;12743;52.262;6.172;2022-11-12T17:57:59;18.23;;;9.87;;